createdAt,value
2019-02-02T00:00:32.148Z,1.85
2019-02-02T00:03:01.195Z,1.93
2019-02-02T00:05:29.839Z,1.87
2019-02-02T00:07:58.543Z,1.74
2019-02-02T00:10:27.263Z,1.94
2019-02-02T00:12:55.968Z,1.90
2019-02-02T00:15:25.094Z,1.71
2019-02-02T00:17:53.770Z,1.55
2019-02-02T00:20:22.361Z,1.80
2019-02-02T00:22:51.103Z,1.95
2019-02-02T00:25:19.689Z,1.66
2019-02-02T00:27:48.416Z,1.86
2019-02-02T00:30:20.742Z,1.90
2019-02-02T00:32:49.308Z,1.84
2019-02-02T00:35:17.990Z,1.66
2019-02-02T00:37:46.596Z,1.53
2019-02-02T00:40:19.391Z,1.69
2019-02-02T00:42:48.087Z,1.84
2019-02-02T00:45:21.484Z,1.60
2019-02-02T00:47:50.374Z,1.55
2019-02-02T00:50:20.392Z,1.54
2019-02-02T00:52:48.957Z,1.69
2019-02-02T00:55:19.444Z,1.48
2019-02-02T00:57:53.575Z,1.57
2019-02-02T01:00:23.894Z,1.52
2019-02-02T01:02:52.479Z,1.75
2019-02-02T01:05:22.619Z,1.83
2019-02-02T01:07:52.138Z,1.70
2019-02-02T01:10:32.889Z,1.81
2019-02-02T01:13:02.021Z,1.57
2019-02-02T01:15:31.069Z,1.75
2019-02-02T01:17:59.667Z,1.66
2019-02-02T01:20:28.247Z,1.60
2019-02-02T01:22:56.913Z,1.40
2019-02-02T01:25:25.515Z,1.63
2019-02-02T01:28:04.481Z,1.41
2019-02-02T01:30:25.876Z,1.47
2019-02-02T01:32:54.530Z,1.51
2019-02-02T01:35:23.726Z,1.48
2019-02-02T01:37:52.380Z,1.51
2019-02-02T01:40:25.693Z,1.53
2019-02-02T01:42:54.559Z,1.43
2019-02-02T01:45:25.147Z,1.32
2019-02-02T01:47:53.949Z,1.34
2019-02-02T01:50:24.773Z,1.22
2019-02-02T01:52:53.353Z,1.31
2019-02-02T01:55:22.006Z,1.56
2019-02-02T01:57:50.672Z,1.38
2019-02-02T02:00:25.183Z,1.44
2019-02-02T02:02:54.544Z,1.43
2019-02-02T02:05:23.520Z,1.54
2019-02-02T02:07:52.192Z,1.39
2019-02-02T02:10:21.442Z,1.46
2019-02-02T02:12:50.276Z,1.44
2019-02-02T02:15:19.981Z,1.35
2019-02-02T02:17:48.857Z,1.35
2019-02-02T02:20:19.240Z,1.51
2019-02-02T02:22:49.343Z,1.22
2019-02-02T02:25:19.519Z,1.53
2019-02-02T02:27:48.792Z,1.22
2019-02-02T02:30:19.149Z,1.20
2019-02-02T02:32:47.774Z,1.21
2019-02-02T02:35:16.647Z,1.33
2019-02-02T02:37:45.380Z,1.61
2019-02-02T02:40:16.687Z,1.43
2019-02-02T02:42:45.345Z,1.35
2019-02-02T02:45:14.457Z,1.55
2019-02-02T02:47:43.193Z,1.34
2019-02-02T02:50:14.310Z,1.26
2019-02-02T02:52:43.157Z,1.52
2019-02-02T02:55:13.573Z,1.52
2019-02-02T02:57:42.272Z,1.59
2019-02-02T03:00:22.604Z,1.45
2019-02-02T03:02:51.622Z,1.45
2019-02-02T03:05:20.797Z,1.28
2019-02-02T03:07:50.834Z,1.57
2019-02-02T03:10:22.780Z,1.46
2019-02-02T03:12:51.567Z,1.45
2019-02-02T03:15:20.587Z,1.43
2019-02-02T03:17:50.322Z,1.31
2019-02-02T03:20:21.894Z,1.40
2019-02-02T03:22:50.836Z,1.09
2019-02-02T03:25:26.889Z,1.45
2019-02-02T03:27:55.541Z,1.52
2019-02-02T03:30:24.119Z,1.50
2019-02-02T03:32:52.953Z,1.13
2019-02-02T03:35:23.428Z,1.08
2019-02-02T03:37:52.821Z,1.30
2019-02-02T03:40:22.883Z,1.38
2019-02-02T03:42:51.871Z,1.17
2019-02-02T03:45:22.449Z,1.12
2019-02-02T03:47:52.025Z,1.29
2019-02-02T03:50:20.638Z,1.30
2019-02-02T03:52:50.052Z,1.16
2019-02-02T03:55:18.725Z,1.40
2019-02-02T03:57:47.700Z,1.32
2019-02-02T04:00:21.127Z,1.26
2019-02-02T04:02:50.012Z,1.30
2019-02-02T04:05:23.650Z,1.44
2019-02-02T04:07:52.900Z,1.41
2019-02-02T04:10:21.560Z,1.27
2019-02-02T04:12:50.209Z,1.27
2019-02-02T04:15:20.378Z,1.36
2019-02-02T04:17:49.488Z,1.32
2019-02-02T04:20:22.453Z,1.35
2019-02-02T04:22:52.044Z,1.54
2019-02-02T04:25:22.144Z,1.29
2019-02-02T04:27:50.979Z,1.22
2019-02-02T04:30:21.950Z,1.29
2019-02-02T04:32:50.827Z,1.62
2019-02-02T04:35:20.153Z,1.58
2019-02-02T04:37:49.150Z,1.56
2019-02-02T04:40:17.820Z,1.63
2019-02-02T04:42:46.703Z,1.41
2019-02-02T04:45:18.920Z,1.32
2019-02-02T04:47:47.736Z,1.32
2019-02-02T04:50:21.317Z,1.40
2019-02-02T04:52:50.108Z,1.47
2019-02-02T04:55:20.316Z,1.55
2019-02-02T04:57:49.776Z,1.43
2019-02-02T05:00:21.407Z,1.49
2019-02-02T05:02:50.074Z,1.45
2019-02-02T05:05:19.374Z,1.62
2019-02-02T05:07:48.046Z,1.68
2019-02-02T05:10:21.724Z,1.44
2019-02-02T05:12:50.807Z,1.63
2019-02-02T05:15:19.400Z,1.47
2019-02-02T05:17:47.964Z,1.39
2019-02-02T05:20:18.789Z,1.31
2019-02-02T05:22:47.459Z,1.17
2019-02-02T05:25:17.711Z,1.40
2019-02-02T05:27:46.643Z,1.40
2019-02-02T05:30:29.718Z,1.18
2019-02-02T05:32:58.514Z,1.40
2019-02-02T05:35:27.184Z,1.48
2019-02-02T05:37:55.916Z,1.28
2019-02-02T05:40:24.615Z,1.67
2019-02-02T05:42:53.343Z,1.53
2019-02-02T05:45:23.500Z,1.52
2019-02-02T05:47:52.581Z,1.31
2019-02-02T05:50:23.404Z,1.16
2019-02-02T05:52:52.820Z,1.52
2019-02-02T05:55:23.171Z,1.47
2019-02-02T05:57:51.784Z,1.39
2019-02-02T06:00:30.400Z,1.60
2019-02-02T06:03:00.684Z,1.56
2019-02-02T06:05:29.324Z,1.48
2019-02-02T06:07:58.047Z,1.36
2019-02-02T06:10:26.615Z,1.76
2019-02-02T06:12:55.173Z,1.47
2019-02-02T06:15:24.170Z,1.54
2019-02-02T06:17:52.939Z,1.45
2019-02-02T06:20:21.591Z,1.64
2019-02-02T06:22:50.281Z,1.66
2019-02-02T06:25:19.383Z,1.54
2019-02-02T06:27:47.932Z,1.33
2019-02-02T06:30:21.109Z,1.38
2019-02-02T06:32:50.120Z,1.35
2019-02-02T06:35:19.558Z,1.52
2019-02-02T06:37:48.265Z,1.47
2019-02-02T06:40:17.496Z,1.31
2019-02-02T06:42:46.373Z,1.26
2019-02-02T06:45:29.898Z,1.33
2019-02-02T06:47:58.888Z,1.49
2019-02-02T06:50:27.388Z,1.46
2019-02-02T06:52:56.545Z,1.55
2019-02-02T06:55:25.395Z,1.35
2019-02-02T06:57:53.988Z,1.34
2019-02-02T07:00:27.667Z,1.47
2019-02-02T07:02:56.750Z,1.58
2019-02-02T07:05:25.431Z,1.50
2019-02-02T07:07:55.106Z,1.64
2019-02-02T07:10:28.607Z,1.60
2019-02-02T07:12:57.756Z,1.57
2019-02-02T07:15:28.586Z,1.58
2019-02-02T07:17:57.244Z,1.52
2019-02-02T07:20:25.838Z,1.54
2019-02-02T07:22:54.638Z,1.49
2019-02-02T07:25:23.249Z,1.53
2019-02-02T07:27:52.233Z,1.59
2019-02-02T07:30:28.622Z,1.42
2019-02-02T07:32:53.895Z,1.44
2019-02-02T07:35:23.031Z,1.60
2019-02-02T07:37:51.849Z,1.46
2019-02-02T07:40:22.010Z,1.43
2019-02-02T07:42:50.953Z,1.27
2019-02-02T07:45:24.897Z,1.39
2019-02-02T07:47:53.586Z,1.41
2019-02-02T07:50:22.249Z,1.43
2019-02-02T07:52:51.240Z,1.48
2019-02-02T07:55:21.763Z,1.38
2019-02-02T07:57:50.638Z,1.44
2019-02-02T08:00:39.669Z,1.61
2019-02-02T08:02:58.464Z,1.91
2019-02-02T08:05:27.667Z,1.66
2019-02-02T08:07:56.312Z,1.47
2019-02-02T08:10:24.896Z,1.48
2019-02-02T08:12:53.640Z,1.52
2019-02-02T08:15:27.612Z,1.57
2019-02-02T08:17:56.252Z,1.82
2019-02-02T08:20:27.828Z,1.64
2019-02-02T08:22:56.743Z,1.76
2019-02-02T08:25:25.419Z,1.53
2019-02-02T08:27:54.080Z,1.64
2019-02-02T08:30:25.725Z,1.73
2019-02-02T08:32:54.730Z,1.62
2019-02-02T08:35:23.616Z,1.65
2019-02-02T08:37:52.200Z,1.76
2019-02-02T08:40:21.173Z,1.76
2019-02-02T08:42:49.860Z,1.85
2019-02-02T08:45:18.719Z,1.77
2019-02-02T08:47:47.527Z,1.98
2019-02-02T08:50:25.573Z,2.07
2019-02-02T08:52:54.136Z,1.98
2019-02-02T08:55:23.028Z,2.03
2019-02-02T08:57:51.834Z,2.27
2019-02-02T09:00:21.092Z,2.21
2019-02-02T09:02:54.214Z,2.34
2019-02-02T09:05:24.001Z,2.30
2019-02-02T09:07:52.898Z,1.97
2019-02-02T09:10:26.532Z,2.15
2019-02-02T09:12:55.459Z,2.22
2019-02-02T09:15:24.272Z,2.16
2019-02-02T09:17:52.905Z,2.33
2019-02-02T09:20:21.552Z,2.31
2019-02-02T09:23:02.681Z,2.52
2019-02-02T09:25:20.454Z,2.54
2019-02-02T09:27:49.012Z,2.59
2019-02-02T09:30:23.026Z,2.50
2019-02-02T09:32:52.062Z,2.35
2019-02-02T09:35:20.661Z,2.27
2019-02-02T09:37:49.433Z,2.21
2019-02-02T09:40:21.567Z,2.43
2019-02-02T09:42:50.348Z,2.18
2019-02-02T09:45:20.826Z,2.13
2019-02-02T09:47:50.249Z,2.21
2019-02-02T09:50:23.277Z,2.15
2019-02-02T09:52:51.953Z,1.98
2019-02-02T09:55:23.324Z,2.18
2019-02-02T09:57:54.935Z,1.86
2019-02-02T10:00:31.496Z,2.04
2019-02-02T10:03:00.227Z,2.39
2019-02-02T10:05:29.990Z,2.36
2019-02-02T10:07:58.621Z,2.32
2019-02-02T10:10:29.752Z,2.17
2019-02-02T10:12:59.471Z,2.00
2019-02-02T10:15:28.306Z,2.28
2019-02-02T10:17:56.968Z,2.16
2019-02-02T10:20:28.501Z,1.93
2019-02-02T10:22:58.244Z,2.06
2019-02-02T10:25:28.809Z,2.19
2019-02-02T10:27:57.893Z,2.55
2019-02-02T10:30:32.346Z,1.98
2019-02-02T10:33:01.035Z,2.20
2019-02-02T10:35:29.691Z,2.31
2019-02-02T10:37:58.599Z,2.20
2019-02-02T10:40:29.953Z,2.08
2019-02-02T10:42:57.914Z,1.97
2019-02-02T10:45:26.821Z,2.07
2019-02-02T10:47:55.601Z,2.19
2019-02-02T10:50:26.022Z,2.13
2019-02-02T10:52:54.655Z,2.09
2019-02-02T10:55:23.384Z,1.95
2019-02-02T10:57:52.149Z,1.90
2019-02-02T11:00:23.446Z,1.95
2019-02-02T11:02:52.212Z,2.09
2019-02-02T11:05:21.480Z,2.05
2019-02-02T11:07:50.260Z,1.97
2019-02-02T11:10:25.161Z,2.06
2019-02-02T11:12:53.924Z,2.34
2019-02-02T11:15:23.842Z,2.03
2019-02-02T11:17:52.486Z,2.08
2019-02-02T11:20:33.026Z,2.31
2019-02-02T11:23:01.861Z,2.11
2019-02-02T11:25:31.054Z,2.15
2019-02-02T11:28:00.782Z,2.33
2019-02-02T11:30:30.552Z,2.45
2019-02-02T11:32:59.277Z,2.29
2019-02-02T11:35:28.241Z,2.08
2019-02-02T11:37:56.996Z,2.35
2019-02-02T11:40:34.402Z,2.77
2019-02-02T11:43:03.609Z,2.53
2019-02-02T11:45:32.708Z,2.46
2019-02-02T11:48:01.481Z,2.67
2019-02-02T11:50:30.490Z,2.28
2019-02-02T11:52:59.153Z,2.12
2019-02-02T11:55:29.172Z,2.13
2019-02-02T11:57:57.867Z,2.03
2019-02-02T12:00:29.174Z,2.40
2019-02-02T12:02:57.820Z,2.39
2019-02-02T12:05:26.517Z,2.19
2019-02-02T12:07:55.375Z,2.11
2019-02-02T12:10:26.973Z,2.11
2019-02-02T12:12:55.610Z,2.12
2019-02-02T12:15:24.649Z,2.12
2019-02-02T12:17:53.369Z,2.12
2019-02-02T12:20:23.867Z,2.07
2019-02-02T12:22:52.653Z,2.17
2019-02-02T12:25:21.318Z,2.10
2019-02-02T12:27:50.016Z,2.22
2019-02-02T12:30:24.601Z,2.24
2019-02-02T12:32:53.778Z,2.13
2019-02-02T12:35:24.340Z,2.14
2019-02-02T12:37:53.487Z,2.26
2019-02-02T12:40:24.736Z,2.15
2019-02-02T12:42:53.858Z,2.44
2019-02-02T12:45:28.486Z,2.54
2019-02-02T12:47:57.999Z,2.27
2019-02-02T12:50:26.611Z,2.33
2019-02-02T12:52:55.284Z,2.28
2019-02-02T12:55:25.964Z,2.40
2019-02-02T12:57:54.328Z,2.40
2019-02-02T13:00:23.541Z,2.42
2019-02-02T13:02:52.229Z,2.26
2019-02-02T13:05:22.346Z,1.98
2019-02-02T13:07:51.004Z,1.77
2019-02-02T13:10:25.153Z,2.04
2019-02-02T13:12:53.941Z,1.97
2019-02-02T13:15:22.722Z,1.95
2019-02-02T13:17:51.534Z,1.87
2019-02-02T13:20:20.374Z,1.90
2019-02-02T13:22:49.150Z,1.90
2019-02-02T13:25:22.634Z,1.94
2019-02-02T13:27:51.311Z,1.93
2019-02-02T13:30:34.168Z,1.68
2019-02-02T13:33:02.950Z,1.82
2019-02-02T13:35:34.608Z,1.87
2019-02-02T13:38:03.315Z,1.44
2019-02-02T13:40:31.910Z,1.48
2019-02-02T13:43:00.538Z,1.58
2019-02-02T13:45:29.160Z,1.57
2019-02-02T13:47:57.818Z,1.52
2019-02-02T13:50:26.548Z,1.44
2019-02-02T13:52:55.155Z,1.48
2019-02-02T13:55:23.714Z,1.37
2019-02-02T13:57:52.736Z,1.74
2019-02-02T14:00:27.182Z,1.64
2019-02-02T14:03:02.886Z,1.55
2019-02-02T14:05:27.025Z,1.36
2019-02-02T14:07:56.290Z,1.48
2019-02-02T14:10:27.510Z,1.72
2019-02-02T14:12:56.359Z,1.64
2019-02-02T14:15:25.053Z,1.56
2019-02-02T14:17:53.768Z,1.47
2019-02-02T14:20:22.473Z,1.55
2019-02-02T14:22:51.719Z,1.53
2019-02-02T14:25:21.391Z,1.40
2019-02-02T14:27:54.586Z,1.35
2019-02-02T14:30:25.430Z,1.27
2019-02-02T14:32:55.094Z,1.46
2019-02-02T14:35:27.130Z,1.49
2019-02-02T14:37:55.967Z,1.45
2019-02-02T14:40:24.577Z,1.55
2019-02-02T14:42:53.213Z,1.47
2019-02-02T14:45:27.692Z,1.52
2019-02-02T14:47:56.139Z,1.43
2019-02-02T14:50:25.482Z,1.35
2019-02-02T14:52:54.710Z,1.53
2019-02-02T14:55:26.138Z,1.45
2019-02-02T14:57:55.183Z,1.33
2019-02-02T15:00:30.715Z,1.50
2019-02-02T15:02:59.694Z,1.57
2019-02-02T15:05:42.203Z,1.54
2019-02-02T15:08:00.464Z,1.39
2019-02-02T15:10:29.018Z,1.51
2019-02-02T15:12:57.903Z,1.54
2019-02-02T15:15:26.676Z,1.66
2019-02-02T15:17:55.597Z,1.57
2019-02-02T15:20:27.243Z,1.48
2019-02-02T15:22:57.271Z,1.38
2019-02-02T15:25:26.078Z,1.42
2019-02-02T15:27:55.415Z,1.44
2019-02-02T15:30:27.080Z,1.26
2019-02-02T15:32:57.120Z,1.34
2019-02-02T15:35:25.934Z,1.41
2019-02-02T15:37:56.281Z,1.40
2019-02-02T15:40:25.025Z,1.31
2019-02-02T15:42:54.394Z,1.30
2019-02-02T15:45:28.660Z,1.16
2019-02-02T15:47:57.632Z,1.25
2019-02-02T15:50:26.236Z,1.21
2019-02-02T15:52:54.898Z,1.07
2019-02-02T15:55:24.986Z,1.16
2019-02-02T15:57:54.104Z,1.05
2019-02-02T16:00:25.221Z,1.14
2019-02-02T16:02:54.386Z,1.18
2019-02-02T16:05:23.845Z,1.31
2019-02-02T16:07:52.652Z,1.41
2019-02-02T16:10:26.343Z,1.54
2019-02-02T16:12:55.087Z,1.53
2019-02-02T16:15:23.696Z,1.30
2019-02-02T16:17:52.300Z,1.47
2019-02-02T16:20:23.569Z,1.71
2019-02-02T16:22:54.213Z,1.40
2019-02-02T16:25:23.283Z,1.49
2019-02-02T16:27:52.188Z,1.57
2019-02-02T16:30:28.876Z,1.48
2019-02-02T16:32:57.634Z,1.38
2019-02-02T16:35:29.293Z,1.52
2019-02-02T16:37:58.036Z,1.36
2019-02-02T16:40:31.048Z,1.38
2019-02-02T16:42:59.816Z,1.47
2019-02-02T16:45:34.672Z,1.32
2019-02-02T16:48:03.865Z,1.49
2019-02-02T16:50:33.321Z,1.49
2019-02-02T16:53:02.289Z,1.47
2019-02-02T16:55:30.970Z,1.46
2019-02-02T16:58:00.245Z,1.42
2019-02-02T17:00:32.285Z,1.44
2019-02-02T17:03:01.133Z,1.46
2019-02-02T17:05:31.868Z,1.47
2019-02-02T17:08:00.899Z,1.49
2019-02-02T17:10:36.749Z,1.53
2019-02-02T17:13:06.458Z,1.41
2019-02-02T17:15:35.380Z,1.69
2019-02-02T17:18:04.480Z,1.65
2019-02-02T17:20:38.015Z,1.56
2019-02-02T17:23:06.721Z,1.40
2019-02-02T17:25:35.774Z,1.63
2019-02-02T17:28:06.793Z,1.57
2019-02-02T17:30:36.131Z,1.54
2019-02-02T17:33:09.973Z,1.57
2019-02-02T17:35:38.941Z,1.53
2019-02-02T17:38:09.425Z,1.43
2019-02-02T17:40:38.326Z,1.61
2019-02-02T22:16:35.104Z,1.57
2019-02-02T22:19:04.357Z,1.68
2019-02-02T22:21:33.967Z,1.74
2019-02-02T22:24:03.255Z,1.82
2019-02-02T22:26:32.346Z,1.64
2019-02-02T22:29:01.397Z,1.76
2019-02-02T22:31:30.016Z,1.68
2019-02-02T22:33:58.699Z,1.77
2019-02-02T22:36:27.893Z,1.77
2019-02-02T22:38:56.625Z,1.77
2019-02-02T22:41:25.180Z,1.64
2019-02-02T22:43:53.933Z,1.70
2019-02-02T22:46:22.549Z,1.66
2019-02-02T22:48:51.437Z,1.70
2019-02-02T22:51:20.135Z,1.72
2019-02-02T22:53:49.823Z,1.66
2019-02-02T22:56:18.418Z,1.58
2019-02-02T22:58:47.267Z,1.73
2019-02-02T23:01:19.562Z,1.64
2019-02-02T23:03:54.866Z,1.62
2019-02-02T23:06:39.356Z,1.70
2019-02-02T23:09:21.282Z,1.68
2019-02-02T23:12:04.913Z,1.58
2019-02-02T23:14:52.201Z,1.66
2019-02-02T23:17:20.758Z,1.63
2019-02-02T23:19:49.417Z,1.75
2019-02-02T23:22:18.282Z,1.50
2019-02-02T23:24:46.845Z,1.66
2019-02-02T23:27:16.640Z,1.75
2019-02-02T23:29:45.655Z,1.36
2019-02-02T23:32:14.326Z,1.53
2019-02-02T23:34:42.934Z,1.54
2019-02-02T23:37:11.990Z,1.61
2019-02-02T23:39:40.613Z,1.71
2019-02-02T23:42:09.315Z,1.59
2019-02-02T23:44:37.930Z,1.60
2019-02-02T23:47:06.637Z,1.60
2019-02-02T23:49:35.552Z,1.57
2019-02-02T23:52:04.249Z,1.66
2019-02-02T23:54:32.820Z,1.74
2019-02-02T23:57:01.451Z,1.66
2019-02-02T23:59:30.062Z,1.63
